Time;durP1;ratioP1;P1;durP2;ratioP2;P2;SDS_P1;SDS_P2;PMS_P1;PMS_P2;Temp;Humidity;BMP_temperature;BMP_pressure;BME280_temperature;BME280_humidity;BME280_pressure;Samples;Min_cycle;Max_cycle;Signal;HPM_P1;HPM_P2
2022/03/25 00:01:03;;;;;;;1999.90;999.90;;;;;;;4.23;31.19;102457.19;4956167;28;97379;-74
2022/03/25 00:03:31;;;;;;;1999.90;999.90;;;;;;;4.20;31.00;102456.03;4955098;28;97533;-74
2022/03/25 00:06:00;;;;;;;1999.90;999.90;;;;;;;4.17;31.18;102461.09;4950456;28;97824;-74
2022/03/25 00:08:28;;;;;;;1999.90;999.90;;;;;;;4.13;31.16;102459.94;4954094;28;97543;-75
2022/03/25 00:10:55;;;;;;;1999.90;999.90;;;;;;;4.10;30.97;102454.44;4953583;28;97953;-74
2022/03/25 00:13:24;;;;;;;1999.90;999.90;;;;;;;4.06;31.02;102455.03;4971506;28;98958;-74
2022/03/25 00:15:52;;;;;;;1999.90;999.90;;;;;;;4.03;31.05;102454.81;4952678;28;97536;-74
2022/03/25 00:18:20;;;;;;;1999.90;999.90;;;;;;;4.58;30.58;102457.09;4955729;28;96887;-74
2022/03/25 00:20:49;;;;;;;1999.90;999.90;;;;;;;4.23;30.90;102453.63;4949955;28;98058;-74
2022/03/25 00:23:17;;;;;;;1999.90;999.90;;;;;;;4.11;30.88;102445.75;4959668;28;97700;-74
2022/03/25 00:25:44;;;;;;;1999.90;999.90;;;;;;;4.05;31.08;102452.28;4951173;28;98518;-74
2022/03/25 00:28:12;;;;;;;1999.90;999.90;;;;;;;3.99;31.20;102447.47;4954998;28;97919;-74
2022/03/25 00:30:42;;;;;;;1999.90;999.90;;;;;;;3.96;31.28;102449.88;4958518;28;97091;-74
2022/03/25 00:33:11;;;;;;;1999.90;999.90;;;;;;;4.49;30.78;102435.34;4958996;28;100861;-74
2022/03/25 00:35:40;;;;;;;1999.90;999.90;;;;;;;4.68;30.44;102438.47;4957827;28;98836;-75
2022/03/25 00:38:08;;;;;;;1999.90;999.90;;;;;;;4.80;30.60;102435.81;4959513;28;96812;-74
2022/03/25 00:40:36;;;;;;;1999.90;999.90;;;;;;;4.37;31.17;102441.47;4961295;28;97420;-74
2022/03/25 00:43:06;;;;;;;1999.90;999.90;;;;;;;4.18;31.43;102445.41;4916575;28;1265224;-74
2022/03/25 00:45:34;;;;;;;1999.90;999.90;;;;;;;4.06;31.56;102444.47;4959867;28;98793;-74
2022/03/25 00:48:05;;;;;;;1999.90;999.90;;;;;;;4.54;30.84;102436.59;4960757;28;96833;-74
2022/03/25 00:50:34;;;;;;;1999.90;999.90;;;;;;;4.15;31.58;102439.00;4961246;28;97895;-74
2022/03/25 00:53:02;;;;;;;1999.90;999.90;;;;;;;3.98;31.78;102443.03;4961212;28;97892;-74
2022/03/25 00:55:29;;;;;;;1999.90;999.90;;;;;;;3.88;31.56;102434.28;4960683;28;98096;-74
2022/03/25 00:57:58;;;;;;;1999.90;999.90;;;;;;;3.76;31.42;102436.97;4961922;28;96446;-74
2022/03/25 01:00:25;;;;;;;1999.90;999.90;;;;;;;3.67;31.76;102428.38;4960354;28;98388;-74
2022/03/25 01:02:54;;;;;;;1999.90;999.90;;;;;;;3.60;31.74;102433.94;4958292;28;98027;-74
2022/03/25 01:05:24;;;;;;;1999.90;999.90;;;;;;;4.17;31.82;102424.22;4960186;28;99221;-74
2022/03/25 01:07:52;;;;;;;1999.90;999.90;;;;;;;3.76;32.58;102436.97;4960357;28;96916;-74
2022/03/25 01:10:20;;;;;;;1999.90;999.90;;;;;;;3.64;32.44;102430.72;4960183;28;96968;-74
2022/03/25 01:12:48;;;;;;;1999.90;999.90;;;;;;;4.15;32.33;102425.81;4963646;28;99655;-74
2022/03/25 01:15:16;;;;;;;1999.90;999.90;;;;;;;4.31;32.09;102419.94;4963409;28;98961;-74
2022/03/25 01:17:58;;;;;;;1999.90;999.90;;;;;;;4.40;32.15;102431.13;4964397;28;97313;-74
2022/03/25 01:20:42;;;;;;;1999.90;999.90;;;;;;;3.88;32.47;102431.66;4962417;28;97024;-75
2022/03/25 01:23:15;;;;;;;1999.90;999.90;;;;;;;3.70;32.51;102435.56;4950344;28;98199;-74
2022/03/25 01:25:43;;;;;;;1999.90;999.90;;;;;;;3.57;32.91;102427.53;4963788;28;97713;-73
2022/03/25 01:28:11;;;;;;;1999.90;999.90;;;;;;;3.49;32.60;102437.50;4961971;28;96789;-74
2022/03/25 01:30:38;;;;;;;1999.90;999.90;;;;;;;3.43;32.53;102439.66;4961653;28;97021;-75
2022/03/25 01:33:09;;;;;;;1999.90;999.90;;;;;;;3.38;33.09;102438.38;4959548;28;97632;-74
2022/03/25 01:35:40;;;;;;;1999.90;999.90;;;;;;;3.34;32.76;102438.94;4959832;28;97576;-74
2022/03/25 01:38:11;;;;;;;1999.90;999.90;;;;;;;3.30;33.08;102439.50;4961420;28;96858;-73
2022/03/25 01:40:39;;;;;;;1999.90;999.90;;;;;;;3.26;32.85;102439.16;4961151;28;96930;-74
2022/03/25 01:43:07;;;;;;;1999.90;999.90;;;;;;;3.20;32.78;102432.59;4959527;28;97637;-73
2022/03/25 01:45:37;;;;;;;1999.90;999.90;;;;;;;3.15;33.23;102441.88;4961074;28;98772;-75
2022/03/25 01:48:09;;;;;;;1999.90;999.90;;;;;;;3.08;32.94;102438.66;4943793;28;96844;-74
2022/03/25 01:50:37;;;;;;;1999.90;999.90;;;;;;;3.07;33.16;102439.47;4961112;28;97172;-74
2022/03/25 01:53:11;;;;;;;1999.90;999.90;;;;;;;3.03;33.31;102437.38;4960831;28;98355;-74
2022/03/25 01:55:39;;;;;;;1999.90;999.90;;;;;;;3.00;32.65;102438.03;4960374;28;97823;-79
2022/03/25 01:58:07;;;;;;;1999.90;999.90;;;;;;;3.55;32.39;102434.41;4952554;28;96710;-73
2022/03/25 02:00:35;;;;;;;1999.90;999.90;;;;;;;3.73;32.72;102423.53;4954291;28;96332;-76
2022/03/25 02:03:04;;;;;;;1999.90;999.90;;;;;;;3.82;32.44;102424.25;4948796;28;97809;-74
2022/03/25 02:05:32;;;;;;;1999.90;999.90;;;;;;;3.90;32.82;102425.72;4951022;28;97542;-76
2022/03/25 02:08:02;;;;;;;1999.90;999.90;;;;;;;3.95;32.79;102433.97;4949956;28;97013;-74
2022/03/25 02:10:31;;;;;;;1999.90;999.90;;;;;;;3.98;32.68;102432.50;4952976;28;96778;-76
2022/03/25 02:13:00;;;;;;;1999.90;999.90;;;;;;;3.45;33.77;102438.03;4951878;28;97923;-77
2022/03/25 02:15:34;;;;;;;1999.90;999.90;;;;;;;3.27;33.13;102436.66;4935683;28;100849;-76
2022/03/25 02:18:12;;;;;;;1999.90;999.90;;;;;;;3.14;33.85;102441.75;4951299;28;97203;-76
2022/03/25 02:20:40;;;;;;;1999.90;999.90;;;;;;;3.05;33.70;102438.41;4933964;28;98096;-74
2022/03/25 02:23:12;;;;;;;1999.90;999.90;;;;;;;2.97;34.23;102442.16;4956283;28;99787;-74
2022/03/25 02:25:41;;;;;;;1999.90;999.90;;;;;;;2.92;33.83;102443.50;4941202;28;99195;-75
2022/03/25 02:28:10;;;;;;;1999.90;999.90;;;;;;;2.85;34.17;102438.56;4958528;28;96827;-75
2022/03/25 02:30:39;;;;;;;1999.90;999.90;;;;;;;2.79;33.71;102439.00;4954498;28;97426;-74
2022/03/25 02:33:08;;;;;;;1999.90;999.90;;;;;;;2.74;33.58;102444.69;4960441;28;97937;-74
2022/03/25 02:35:37;;;;;;;1999.90;999.90;;;;;;;2.67;33.67;102443.31;4956894;28;97574;-74
2022/03/25 02:38:05;;;;;;;1999.90;999.90;;;;;;;2.61;33.86;102444.53;4955620;28;98045;-74
2022/03/25 02:40:35;;;;;;;1999.90;999.90;;;;;;;2.57;33.67;102450.31;4957398;28;96749;-75
2022/03/25 02:43:04;;;;;;;1999.90;999.90;;;;;;;2.53;33.99;102449.16;4955185;28;97522;-74
2022/03/25 02:45:32;;;;;;;1999.90;999.90;;;;;;;2.50;33.76;102456.81;4938929;28;99215;-73
2022/03/25 02:48:00;;;;;;;1999.90;999.90;;;;;;;2.49;33.74;102454.06;4955326;28;97756;-74
2022/03/25 02:50:29;;;;;;;1999.90;999.90;;;;;;;2.45;34.14;102455.53;4955421;28;96973;-74
2022/03/25 02:52:58;;;;;;;1999.90;999.90;;;;;;;2.43;33.88;102453.56;4955512;28;97792;-72
2022/03/25 02:55:26;;;;;;;1999.90;999.90;;;;;;;2.41;34.13;102457.78;4958369;28;99184;-72
2022/03/25 02:57:56;;;;;;;1999.90;999.90;;;;;;;2.37;33.92;102455.69;4958421;28;97865;-73
2022/03/25 03:00:25;;;;;;;1999.90;999.90;;;;;;;2.35;33.83;102452.94;4957541;28;97575;-73
2022/03/25 03:02:54;;;;;;;1999.90;999.90;;;;;;;2.31;34.50;102440.34;4957554;28;99654;-73
2022/03/25 03:05:22;;;;;;;1999.90;999.90;;;;;;;2.30;34.10;102446.41;4957236;28;98959;-73
2022/03/25 03:07:50;;;;;;;1999.90;999.90;;;;;;;2.28;34.04;102452.31;4955600;28;96934;-73
2022/03/25 03:10:18;;;;;;;1999.90;999.90;;;;;;;2.26;34.54;102451.28;4955513;28;97987;-72
2022/03/25 03:12:46;;;;;;;1999.90;999.90;;;;;;;2.23;34.01;102449.34;4955592;28;98195;-73
2022/03/25 03:15:17;;;;;;;1999.90;999.90;;;;;;;2.21;34.34;102448.31;4973603;28;98552;-72
2022/03/25 03:17:46;;;;;;;1999.90;999.90;;;;;;;2.18;34.46;102443.69;4956340;28;97368;-72
2022/03/25 03:20:16;;;;;;;1999.90;999.90;;;;;;;2.17;34.01;102448.84;4958186;28;96921;-72
2022/03/25 03:22:44;;;;;;;1999.90;999.90;;;;;;;2.16;34.36;102447.03;4952260;28;98696;-72
2022/03/25 03:25:12;;;;;;;1999.90;999.90;;;;;;;2.14;33.82;102444.25;4953686;28;98123;-73
2022/03/25 03:27:40;;;;;;;1999.90;999.90;;;;;;;2.11;34.45;102441.38;4953259;28;99209;-73
2022/03/25 03:30:09;;;;;;;1999.90;999.90;;;;;;;2.08;34.43;102441.09;4953725;28;98256;-72
2022/03/25 03:32:39;;;;;;;1999.90;999.90;;;;;;;2.06;34.27;102447.00;4953918;28;98535;-72
2022/03/25 03:35:08;;;;;;;1999.90;999.90;;;;;;;2.04;34.20;102446.88;4954910;28;97509;-72
2022/03/25 03:37:43;;;;;;;1999.90;999.90;;;;;;;2.01;35.01;102450.97;4954269;28;97750;-73
2022/03/25 03:40:12;;;;;;;1999.90;999.90;;;;;;;1.99;34.76;102448.22;4956974;28;97469;-72
2022/03/25 03:42:40;;;;;;;1999.90;999.90;;;;;;;1.97;34.09;102446.25;4953078;28;98806;-72
2022/03/25 03:45:08;;;;;;;1999.90;999.90;;;;;;;1.94;34.37;102446.94;4945412;28;100292;-72
2022/03/25 03:47:37;;;;;;;1999.90;999.90;;;;;;;1.94;34.45;102451.28;4945547;28;97606;-72
2022/03/25 03:50:09;;;;;;;1999.90;999.90;;;;;;;1.92;35.01;102452.84;4948062;28;97269;-72
2022/03/25 03:52:37;;;;;;;1999.90;999.90;;;;;;;1.89;34.96;102456.13;4943780;28;98961;-73
2022/03/25 03:55:05;;;;;;;1999.90;999.90;;;;;;;1.89;34.60;102460.47;4944526;28;98840;-74
2022/03/25 03:57:33;;;;;;;1999.90;999.90;;;;;;;1.85;34.63;102456.66;4946283;28;97733;-74
2022/03/25 04:00:01;;;;;;;1999.90;999.90;;;;;;;1.83;34.87;102457.34;4953069;28;97278;-72
2022/03/25 04:02:28;;;;;;;1999.90;999.90;;;;;;;1.81;34.69;102459.84;4950160;28;99882;-72
2022/03/25 04:04:57;;;;;;;1999.90;999.90;;;;;;;2.38;34.27;102463.72;4953979;28;99377;-73
2022/03/25 04:07:26;;;;;;;1999.90;999.90;;;;;;;2.57;34.62;102455.56;4954275;28;97121;-73
2022/03/25 04:09:54;;;;;;;1999.90;999.90;;;;;;;2.15;34.79;102461.84;4957762;28;97139;-74
2022/03/25 04:12:22;;;;;;;1999.90;999.90;;;;;;;2.56;34.51;102459.00;4953596;28;99242;-73
2022/03/25 04:14:49;;;;;;;1999.90;999.90;;;;;;;2.68;35.37;102457.34;4954761;28;96727;-73
2022/03/25 04:17:19;;;;;;;1999.90;999.90;;;;;;;2.74;34.62;102448.25;4954748;28;98428;-73
2022/03/25 04:19:47;;;;;;;1999.90;999.90;;;;;;;2.24;35.45;102464.28;4958294;28;98046;-73
2022/03/25 04:22:15;;;;;;;1999.90;999.90;;;;;;;2.04;35.37;102457.41;4973399;28;97658;-74
2022/03/25 04:24:44;;;;;;;1999.90;999.90;;;;;;;1.92;35.49;102455.47;4973709;28;98331;-74
2022/03/25 04:27:12;;;;;;;1999.90;999.90;;;;;;;2.39;35.31;102464.63;4956554;28;97083;-73
2022/03/25 04:29:39;;;;;;;1999.90;999.90;;;;;;;1.93;35.70;102460.84;4957337;28;97614;-73
2022/03/25 04:32:08;;;;;;;1999.90;999.90;;;;;;;1.75;36.07;102464.56;4956125;28;99246;-73
2022/03/25 04:34:36;;;;;;;1999.90;999.90;;;;;;;1.61;36.58;102465.13;4956146;28;98217;-73
2022/03/25 04:37:04;;;;;;;1999.90;999.90;;;;;;;1.50;36.46;102465.94;4957509;28;96964;-72
2022/03/25 04:39:32;;;;;;;1999.90;999.90;;;;;;;2.02;36.18;102466.84;4958583;28;96883;-73
2022/03/25 04:42:01;;;;;;;1999.90;999.90;;;;;;;1.60;36.83;102468.53;4957112;28;97653;-74
2022/03/25 04:44:28;;;;;;;1999.90;999.90;;;;;;;1.44;37.28;102470.66;4958975;28;98758;-74
2022/03/25 04:46:56;;;;;;;1999.90;999.90;;;;;;;1.35;37.12;102474.22;4971812;28;98117;-73
2022/03/25 04:49:24;;;;;;;1999.90;999.90;;;;;;;1.26;37.10;102456.00;4973812;28;99042;-73
2022/03/25 04:51:52;;;;;;;1999.90;999.90;;;;;;;1.78;37.74;102470.06;4957540;28;97582;-75
2022/03/25 04:54:20;;;;;;;1999.90;999.90;;;;;;;1.36;38.11;102460.31;4956487;28;97965;-75
2022/03/25 04:56:48;;;;;;;1999.90;999.90;;;;;;;1.19;38.34;102472.00;4955084;28;96846;-74
2022/03/25 04:59:17;;;;;;;1999.90;999.90;;;;;;;1.08;38.35;102478.03;4951770;28;97598;-74
2022/03/25 05:01:45;;;;;;;1999.90;999.90;;;;;;;1.00;38.03;102479.97;4944350;28;97603;-72
2022/03/25 05:04:12;;;;;;;1999.90;999.90;;;;;;;1.56;38.68;102484.81;4944878;28;99177;-73
2022/03/25 05:06:40;;;;;;;1999.90;999.90;;;;;;;1.74;38.36;102483.75;4949372;28;98037;-74
2022/03/25 05:09:10;;;;;;;1999.90;999.90;;;;;;;1.29;39.04;102485.09;4951764;28;97485;-73
2022/03/25 05:11:38;;;;;;;1999.90;999.90;;;;;;;1.11;39.38;102475.66;4953285;28;98390;-72
2022/03/25 05:14:06;;;;;;;1999.90;999.90;;;;;;;0.99;39.52;102483.41;4966413;28;99872;-73
2022/03/25 05:16:35;;;;;;;1999.90;999.90;;;;;;;0.91;39.10;102483.50;4953721;28;97155;-73
2022/03/25 05:19:03;;;;;;;1999.90;999.90;;;;;;;0.82;39.28;102485.31;4952959;28;97951;-71
2022/03/25 05:21:31;;;;;;;1999.90;999.90;;;;;;;0.75;39.43;102488.19;4953074;28;98519;-72
2022/03/25 05:23:58;;;;;;;1999.90;999.90;;;;;;;0.71;39.21;102496.56;4955007;28;98092;-72
2022/03/25 05:26:26;;;;;;;1999.90;999.90;;;;;;;0.65;39.27;102499.56;4955073;28;97877;-72
2022/03/25 05:28:54;;;;;;;1999.90;999.90;;;;;;;0.61;39.17;102501.81;4947469;28;98819;-72
2022/03/25 05:31:21;;;;;;;1999.90;999.90;;;;;;;0.57;39.18;102504.94;4970185;28;98260;-70
2022/03/25 05:33:50;;;;;;;1999.90;999.90;;;;;;;0.54;39.21;102505.56;4952656;28;99020;-71
2022/03/25 05:36:18;;;;;;;1999.90;999.90;;;;;;;0.50;38.98;102513.03;4955450;28;97416;-72
2022/03/25 05:38:46;;;;;;;1999.90;999.90;;;;;;;0.49;39.16;102508.56;4956561;28;97113;-71
2022/03/25 05:41:14;;;;;;;1999.90;999.90;;;;;;;0.47;39.38;102507.50;4952030;28;98025;-72
2022/03/25 05:43:42;;;;;;;1999.90;999.90;;;;;;;0.46;39.30;102508.28;4942438;28;99023;-73
2022/03/25 05:46:10;;;;;;;1999.90;999.90;;;;;;;1.05;39.91;102509.22;4947623;28;97033;-71
2022/03/25 05:48:37;;;;;;;1999.90;999.90;;;;;;;1.25;40.50;102503.06;4939600;28;97671;-73
2022/03/25 05:51:06;;;;;;;1999.90;999.90;;;;;;;1.39;40.61;102513.97;4939215;28;97763;-73
2022/03/25 05:53:34;;;;;;;1999.90;999.90;;;;;;;1.47;41.10;102512.88;4940309;28;97167;-74
2022/03/25 05:56:02;;;;;;;1999.90;999.90;;;;;;;1.00;41.15;102519.31;4942459;28;98385;-73
2022/03/25 05:58:29;;;;;;;1999.90;999.90;;;;;;;0.85;41.20;102515.34;4943180;28;96955;-73
2022/03/25 06:00:57;;;;;;;1999.90;999.90;;;;;;;0.77;41.01;102520.69;4938771;28;98972;-73
2022/03/25 06:03:25;;;;;;;1999.90;999.90;;;;;;;0.72;41.03;102527.25;4941845;28;99556;-74
2022/03/25 06:05:53;;;;;;;1999.90;999.90;;;;;;;0.69;41.13;102526.97;4942885;28;97273;-73
2022/03/25 06:08:22;;;;;;;1999.90;999.90;;;;;;;0.66;40.97;102531.94;4943393;28;98846;-74
2022/03/25 06:10:50;;;;;;;1999.90;999.90;;;;;;;0.65;40.98;102530.13;4942699;28;99749;-74
2022/03/25 06:13:18;;;;;;;1999.90;999.90;;;;;;;0.67;40.81;102528.50;4945023;28;97983;-74
2022/03/25 06:15:46;;;;;;;1999.90;999.90;;;;;;;0.67;40.41;102526.81;4939604;28;97974;-74
2022/03/25 06:18:15;;;;;;;1999.90;999.90;;;;;;;0.69;40.47;102527.88;4942671;28;99914;-74
2022/03/25 06:20:42;;;;;;;1999.90;999.90;;;;;;;0.71;40.47;102531.56;4941383;28;99794;-74
2022/03/25 06:23:10;;;;;;;1999.90;999.90;;;;;;;0.76;40.29;102529.31;4943313;28;98442;-74
2022/03/25 06:25:39;;;;;;;1999.90;999.90;;;;;;;0.79;40.43;102537.47;4941586;28;96914;-76
2022/03/25 06:28:07;;;;;;;1999.90;999.90;;;;;;;0.81;40.71;102530.69;4940818;28;97987;-74
2022/03/25 06:30:37;;;;;;;1999.90;999.90;;;;;;;1.46;40.79;102525.88;4939279;28;98751;-74
2022/03/25 06:33:09;;;;;;;1999.90;999.90;;;;;;;1.75;41.11;102526.63;4939514;28;98506;-74
2022/03/25 06:35:38;;;;;;;1999.90;999.90;;;;;;;1.91;41.95;102520.19;4923631;28;98207;-73
2022/03/25 06:38:06;;;;;;;1999.90;999.90;;;;;;;2.06;41.88;102531.03;4940450;28;98747;-74
2022/03/25 06:40:34;;;;;;;1999.90;999.90;;;;;;;2.19;42.60;102520.78;4940226;28;97642;-74
2022/03/25 06:43:03;;;;;;;1999.90;999.90;;;;;;;2.30;41.73;102527.84;4941558;28;99124;-74
2022/03/25 06:45:31;;;;;;;1999.90;999.90;;;;;;;2.42;41.71;102538.44;4943338;28;96976;-74
2022/03/25 06:47:59;;;;;;;1999.90;999.90;;;;;;;2.53;41.97;102533.25;4941636;28;96795;-73
2022/03/25 06:50:27;;;;;;;1999.90;999.90;;;;;;;2.64;41.64;102542.00;4940883;28;97900;-73
2022/03/25 06:52:57;;;;;;;1999.90;999.90;;;;;;;2.74;41.29;102541.97;4957474;28;98605;-73
2022/03/25 06:55:25;;;;;;;1999.90;999.90;;;;;;;2.84;41.06;102544.50;4940717;28;97882;-73
2022/03/25 06:57:54;;;;;;;1999.90;999.90;;;;;;;2.40;41.95;102542.66;4943814;28;97176;-74
2022/03/25 07:00:24;;;;;;;1999.90;999.90;;;;;;;2.82;41.68;102544.41;4939131;28;98980;-74
2022/03/25 07:02:53;;;;;;;1999.90;999.90;;;;;;;2.99;41.11;102543.13;4936421;28;99241;-73
2022/03/25 07:05:21;;;;;;;1999.90;999.90;;;;;;;3.10;40.87;102552.78;4937592;28;97034;-74
2022/03/25 07:07:49;;;;;;;1999.90;999.90;;;;;;;3.21;40.69;102549.28;4935757;28;99232;-74
2022/03/25 07:10:22;;;;;;;1999.90;999.90;;;;;;;2.77;41.02;102558.88;4937111;28;99415;-74
2022/03/25 07:12:51;;;;;;;1999.90;999.90;;;;;;;2.63;41.55;102561.19;4940091;28;99955;-73
2022/03/25 07:15:20;;;;;;;1999.90;999.90;;;;;;;3.13;40.93;102558.31;4937715;28;97826;-74
2022/03/25 07:17:49;;;;;;;1999.90;999.90;;;;;;;2.79;40.79;102564.28;4939242;28;97851;-73
2022/03/25 07:20:18;;;;;;;1999.90;999.90;;;;;;;3.27;40.13;102562.94;4941357;28;98304;-74
2022/03/25 07:22:48;;;;;;;1999.90;999.90;;;;;;;2.93;40.83;102559.31;4939667;28;98382;-74
2022/03/25 07:25:17;;;;;;;1999.90;999.90;;;;;;;2.86;40.38;102558.69;4938417;28;99548;-74
2022/03/25 07:27:46;;;;;;;1999.90;999.90;;;;;;;3.35;39.58;102555.63;4939559;28;97063;-74
2022/03/25 07:30:15;;;;;;;1999.90;999.90;;;;;;;3.61;39.65;102561.19;4935332;28;99427;-73
2022/03/25 07:32:43;;;;;;;1999.90;999.90;;;;;;;3.76;39.05;102558.06;4934588;28;97680;-74
2022/03/25 07:35:12;;;;;;;1999.90;999.90;;;;;;;3.93;38.89;102564.63;4937141;28;98791;-74
2022/03/25 07:37:40;;;;;;;1999.90;999.90;;;;;;;4.06;38.63;102576.19;4936777;28;97283;-74
2022/03/25 07:40:10;;;;;;;1999.90;999.90;;;;;;;3.66;39.33;102568.69;4942498;28;98074;-74
2022/03/25 07:42:39;;;;;;;1999.90;999.90;;;;;;;3.55;39.20;102563.38;4941007;28;98636;-73
2022/03/25 07:45:09;;;;;;;1999.90;999.90;;;;;;;3.51;39.54;102574.44;4938791;28;97466;-74
2022/03/25 07:47:39;;;;;;;1999.90;999.90;;;;;;;3.51;39.13;102574.44;4934935;28;97756;-74
2022/03/25 07:50:09;;;;;;;1999.90;999.90;;;;;;;3.53;39.19;102570.22;4939034;28;99415;-74
2022/03/25 07:52:38;;;;;;;1999.90;999.90;;;;;;;3.56;39.03;102574.00;4944147;28;98747;-73
2022/03/25 07:55:08;;;;;;;1999.90;999.90;;;;;;;3.59;38.74;102579.50;4943306;28;97168;-74
2022/03/25 07:57:36;;;;;;;1999.90;999.90;;;;;;;3.64;38.41;102580.78;4945032;28;97775;-74
2022/03/25 08:00:11;;;;;;;1999.90;999.90;;;;;;;3.69;38.75;102586.44;4926021;28;100371;-74
2022/03/25 08:02:39;;;;;;;1999.90;999.90;;;;;;;3.74;38.27;102586.00;4944990;28;96911;-74
2022/03/25 08:05:09;;;;;;;1999.90;999.90;;;;;;;3.81;38.13;102596.19;4945464;28;97598;-72
2022/03/25 08:07:42;;;;;;;1999.90;999.90;;;;;;;3.87;37.99;102593.13;4946046;28;96807;-73
2022/03/25 08:10:10;;;;;;;1999.90;999.90;;;;;;;3.96;37.79;102593.81;4943476;28;97803;-74
2022/03/25 08:12:38;;;;;;;1999.90;999.90;;;;;;;4.02;37.70;102600.47;4945294;28;98607;-73
2022/03/25 08:15:07;;;;;;;1999.90;999.90;;;;;;;4.09;37.36;102600.16;4946124;28;96835;-73
2022/03/25 08:17:48;;;;;;;1999.90;999.90;;;;;;;4.16;37.48;102599.81;4943774;28;97645;-72
2022/03/25 08:20:28;;;;;;;1999.90;999.90;;;;;;;4.23;37.19;102602.13;4946159;28;99096;-73
2022/03/25 08:22:59;;;;;;;1999.90;999.90;;;;;;;4.33;37.08;102613.34;4960956;28;99598;-74
2022/03/25 08:28:14;;;;;;;1999.90;999.90;;;;;;;4.46;36.75;102616.09;4947509;28;97514;-73
2022/03/25 08:30:42;;;;;;;1999.90;999.90;;;;;;;4.52;36.69;102612.19;4944808;28;98662;-73
2022/03/25 08:33:11;;;;;;;1999.90;999.90;;;;;;;4.61;36.52;102617.25;4944673;28;99072;-73
2022/03/25 08:35:40;;;;;;;1999.90;999.90;;;;;;;4.68;36.50;102614.25;4945391;28;96862;-73
2022/03/25 08:38:10;;;;;;;1999.90;999.90;;;;;;;4.72;36.11;102617.22;4945736;28;97629;-73
2022/03/25 08:40:38;;;;;;;1999.90;999.90;;;;;;;4.78;35.97;102622.03;4926855;28;99139;-73
2022/03/25 08:43:27;;;;;;;1999.90;999.90;;;;;;;4.86;36.19;102616.53;4961814;28;100934;-73
2022/03/25 08:45:55;;;;;;;1999.90;999.90;;;;;;;4.94;36.08;102620.63;4947863;28;97690;-73
2022/03/25 08:48:23;;;;;;;1999.90;999.90;;;;;;;5.01;35.74;102622.00;4947445;28;96889;-73
2022/03/25 08:50:50;;;;;;;1999.90;999.90;;;;;;;5.08;35.74;102625.22;4947171;28;98888;-73
2022/03/25 08:53:19;;;;;;;1999.90;999.90;;;;;;;5.14;35.56;102623.03;4947694;28;97989;-73
2022/03/25 08:55:47;;;;;;;1999.90;999.90;;;;;;;5.22;35.42;102623.59;4948680;28;96909;-72
2022/03/25 08:58:15;;;;;;;1999.90;999.90;;;;;;;5.29;35.51;102622.28;4964469;28;97510;-73
2022/03/25 09:00:43;;;;;;;1999.90;999.90;;;;;;;5.36;35.25;102619.31;4947854;28;98881;-73
2022/03/25 09:03:12;;;;;;;1999.90;999.90;;;;;;;5.43;35.26;102625.09;4962079;28;99573;-73
2022/03/25 09:05:40;;;;;;;1999.90;999.90;;;;;;;5.50;34.92;102622.13;4952215;28;97432;-73
2022/03/25 09:08:08;;;;;;;1999.90;999.90;;;;;;;5.82;34.56;102620.00;4971700;28;96829;-73
2022/03/25 09:10:37;;;;;;;1999.90;999.90;;;;;;;6.01;34.26;102615.16;4947266;28;97962;-73
2022/03/25 09:13:05;;;;;;;1999.90;999.90;;;;;;;5.91;34.22;102615.34;4947870;28;97546;-73
2022/03/25 09:15:33;;;;;;;1999.90;999.90;;;;;;;5.94;34.30;102622.56;4948145;28;97030;-73
2022/03/25 09:18:01;;;;;;;1999.90;999.90;;;;;;;5.97;34.39;102621.06;4949453;28;97633;-73
2022/03/25 09:20:34;;;;;;;1999.90;999.90;;;;;;;6.02;34.03;102622.28;4947391;28;99344;-73
2022/03/25 09:23:01;;;;;;;1999.90;999.90;;;;;;;6.07;34.19;102625.22;4929539;28;97684;-73
2022/03/25 09:25:30;;;;;;;1999.90;999.90;;;;;;;6.14;34.15;102627.50;4947253;28;97061;-73
2022/03/25 09:27:59;;;;;;;1999.90;999.90;;;;;;;6.21;33.76;102622.72;4948081;28;97214;-73
2022/03/25 09:30:27;;;;;;;1999.90;999.90;;;;;;;6.28;34.08;102625.81;4947766;28;97636;-73
2022/03/25 09:33:04;;;;;;;1999.90;999.90;;;;;;;6.36;33.95;102627.25;4946099;28;99116;-73
2022/03/25 09:35:35;;;;;;;1999.90;999.90;;;;;;;6.44;33.61;102620.75;4947239;28;97004;-74
2022/03/25 09:38:03;;;;;;;1999.90;999.90;;;;;;;6.52;33.68;102622.19;4948711;28;96824;-73
2022/03/25 09:40:31;;;;;;;1999.90;999.90;;;;;;;6.58;33.52;102622.59;4947518;28;98356;-73
2022/03/25 09:43:00;;;;;;;1999.90;999.90;;;;;;;6.65;33.60;102627.47;4947231;28;97617;-73
2022/03/25 09:45:30;;;;;;;1999.90;999.90;;;;;;;6.72;33.33;102617.41;4945285;28;96933;-73
2022/03/25 09:47:58;;;;;;;1999.90;999.90;;;;;;;6.78;33.30;102619.53;4964185;28;97725;-73
2022/03/25 09:50:28;;;;;;;1999.90;999.90;;;;;;;6.85;32.97;102624.41;4946819;28;99119;-73
2022/03/25 09:52:56;;;;;;;1999.90;999.90;;;;;;;6.93;33.05;102631.09;4946664;28;97619;-73
2022/03/25 09:55:41;;;;;;;1999.90;999.90;;;;;;;6.99;32.87;102621.84;4946727;28;96991;-73
2022/03/25 09:58:18;;;;;;;1999.90;999.90;;;;;;;7.06;32.73;102620.50;4948675;28;97029;-74
2022/03/25 10:00:49;;;;;;;1999.90;999.90;;;;;;;7.10;33.18;102618.16;4947707;28;98648;-73
2022/03/25 10:03:27;;;;;;;1999.90;999.90;;;;;;;7.20;32.89;102617.91;4947926;28;97015;-73
2022/03/25 10:05:57;;;;;;;1999.90;999.90;;;;;;;7.27;33.00;102614.84;4948557;28;96931;-73
2022/03/25 10:08:38;;;;;;;1999.90;999.90;;;;;;;7.35;32.83;102609.09;4949610;28;97620;-73
2022/03/25 10:11:22;;;;;;;1999.90;999.90;;;;;;;7.40;32.68;102611.22;4948121;28;97813;-73
2022/03/25 10:14:13;;;;;;;1999.90;999.90;;;;;;;7.46;32.89;102610.72;4948473;28;98752;-73
2022/03/25 10:16:42;;;;;;;1999.90;999.90;;;;;;;7.55;32.65;102608.66;4949207;28;97426;-73
2022/03/25 10:19:10;;;;;;;1999.90;999.90;;;;;;;7.60;32.81;102607.22;4949516;28;98073;-73
2022/03/25 10:21:51;;;;;;;1999.90;999.90;;;;;;;7.68;33.28;102611.25;4947535;28;97651;-73
2022/03/25 10:24:35;;;;;;;1999.90;999.90;;;;;;;7.75;32.81;102606.44;4949052;28;97627;-73
2022/03/25 10:27:14;;;;;;;1999.90;999.90;;;;;;;7.85;32.54;102606.19;4949720;28;97442;-73
2022/03/25 10:29:45;;;;;;;1999.90;999.90;;;;;;;7.93;32.54;102604.91;4950193;28;97238;-73
2022/03/25 10:32:14;;;;;;;1999.90;999.90;;;;;;;8.00;32.49;102606.19;4947814;28;97975;-73
2022/03/25 10:34:43;;;;;;;1999.90;999.90;;;;;;;8.04;32.49;102603.81;4949295;28;97782;-73
2022/03/25 10:37:12;;;;;;;1999.90;999.90;;;;;;;8.09;32.31;102602.34;4947968;28;96934;-74
2022/03/25 10:39:49;;;;;;;1999.90;999.90;;;;;;;8.14;32.16;102606.22;4965051;28;97503;-74
2022/03/25 10:42:17;;;;;;;1999.90;999.90;;;;;;;8.17;32.48;102597.50;4946369;28;97624;-73
2022/03/25 10:44:46;;;;;;;1999.90;999.90;;;;;;;8.20;32.29;102601.25;4948728;28;97719;-73
2022/03/25 10:47:26;;;;;;;1999.90;999.90;;;;;;;8.24;32.50;102595.31;4948937;28;97982;-73
2022/03/25 10:49:55;;;;;;;1999.90;999.90;;;;;;;8.31;32.38;102595.69;4949395;28;96757;-72
2022/03/25 10:52:25;;;;;;;1999.90;999.90;;;;;;;8.36;32.40;102596.84;4947870;28;99022;-73
2022/03/25 10:55:16;;;;;;;1999.90;999.90;;;;;;;8.41;32.44;102590.06;4947514;28;97830;-73
2022/03/25 10:57:52;;;;;;;1999.90;999.90;;;;;;;8.48;32.28;102584.31;4947189;28;96671;-73
2022/03/25 11:00:22;;;;;;;1999.90;999.90;;;;;;;8.51;32.45;102587.19;4948998;28;96885;-74
2022/03/25 11:02:50;;;;;;;1999.90;999.90;;;;;;;8.56;32.60;102585.69;4947520;28;100133;-73
2022/03/25 11:05:20;;;;;;;1999.90;999.90;;;;;;;8.60;32.24;102580.69;4947144;28;98767;-74
2022/03/25 11:07:50;;;;;;;1999.90;999.90;;;;;;;8.64;32.19;102580.00;4946163;28;96735;-73